sensor_id;sensor_type;location;lat;lon;timestamp;pressure;altitude;pressure_sealevel;temperature;humidity
12868;BME280;33517;49.866;8.320;2023-05-09T00:01:10;100765.69;;;16.59;92.43
12868;BME280;33517;49.866;8.320;2023-05-09T00:04:02;100762.66;;;16.63;92.14
12868;BME280;33517;49.866;8.320;2023-05-09T00:06:54;100762.47;;;16.64;92.54
12868;BME280;33517;49.866;8.320;2023-05-09T00:09:46;100760.63;;;16.65;92.06
12868;BME280;33517;49.866;8.320;2023-05-09T00:12:38;100754.69;;;16.63;91.79
12868;BME280;33517;49.866;8.320;2023-05-09T00:15:30;100744.06;;;16.63;92.59
12868;BME280;33517;49.866;8.320;2023-05-09T00:18:23;100751.22;;;16.62;92.18
12868;BME280;33517;49.866;8.320;2023-05-09T00:21:15;100748.56;;;16.62;92.32
12868;BME280;33517;49.866;8.320;2023-05-09T00:24:07;100750.78;;;16.58;92.27
12868;BME280;33517;49.866;8.320;2023-05-09T00:26:58;100748.50;;;16.55;92.62
12868;BME280;33517;49.866;8.320;2023-05-09T00:29:51;100743.16;;;16.49;92.36
12868;BME280;33517;49.866;8.320;2023-05-09T00:32:42;100743.91;;;16.43;92.33
12868;BME280;33517;49.866;8.320;2023-05-09T00:35:36;100737.53;;;16.37;92.99
12868;BME280;33517;49.866;8.320;2023-05-09T00:38:28;100733.00;;;16.31;92.77
12868;BME280;33517;49.866;8.320;2023-05-09T00:41:19;100731.13;;;16.25;92.81
12868;BME280;33517;49.866;8.320;2023-05-09T00:44:11;100725.31;;;16.15;92.79
12868;BME280;33517;49.866;8.320;2023-05-09T00:47:03;100723.59;;;16.01;93.13
12868;BME280;33517;49.866;8.320;2023-05-09T00:49:56;100713.00;;;15.80;93.12
12868;BME280;33517;49.866;8.320;2023-05-09T00:52:49;100720.78;;;15.60;92.93
12868;BME280;33517;49.866;8.320;2023-05-09T00:55:41;100724.06;;;15.41;93.46
12868;BME280;33517;49.866;8.320;2023-05-09T00:58:33;100721.44;;;15.27;93.43
12868;BME280;33517;49.866;8.320;2023-05-09T01:01:25;100718.47;;;15.15;93.67
12868;BME280;33517;49.866;8.320;2023-05-09T01:04:17;100712.06;;;15.10;93.97
12868;BME280;33517;49.866;8.320;2023-05-09T01:07:15;100716.75;;;15.08;93.87
12868;BME280;33517;49.866;8.320;2023-05-09T01:10:15;100711.78;;;15.05;94.01
12868;BME280;33517;49.866;8.320;2023-05-09T01:13:16;100710.16;;;15.04;94.07
12868;BME280;33517;49.866;8.320;2023-05-09T01:16:17;100715.09;;;15.07;94.18
12868;BME280;33517;49.866;8.320;2023-05-09T01:19:27;100699.19;;;15.07;94.50
12868;BME280;33517;49.866;8.320;2023-05-09T01:22:25;100691.22;;;15.07;94.21
12868;BME280;33517;49.866;8.320;2023-05-09T01:25:41;100693.25;;;15.05;94.44
12868;BME280;33517;49.866;8.320;2023-05-09T01:28:45;100691.63;;;15.04;94.39
12868;BME280;33517;49.866;8.320;2023-05-09T01:31:43;100685.47;;;15.03;94.53
12868;BME280;33517;49.866;8.320;2023-05-09T01:34:37;100688.53;;;15.00;94.47
12868;BME280;33517;49.866;8.320;2023-05-09T01:37:32;100676.38;;;14.91;94.55
12868;BME280;33517;49.866;8.320;2023-05-09T01:40:26;100674.28;;;14.87;95.08
12868;BME280;33517;49.866;8.320;2023-05-09T01:43:22;100675.28;;;14.86;94.55
12868;BME280;33517;49.866;8.320;2023-05-09T01:46:17;100670.38;;;14.83;95.04
12868;BME280;33517;49.866;8.320;2023-05-09T01:49:12;100665.19;;;14.74;94.53
12868;BME280;33517;49.866;8.320;2023-05-09T01:52:07;100672.59;;;14.64;94.69
12868;BME280;33517;49.866;8.320;2023-05-09T01:54:59;100672.06;;;14.54;95.11
12868;BME280;33517;49.866;8.320;2023-05-09T01:57:52;100680.91;;;14.47;94.63
12868;BME280;33517;49.866;8.320;2023-05-09T02:00:46;100668.03;;;14.44;95.61
12868;BME280;33517;49.866;8.320;2023-05-09T02:03:39;100669.84;;;14.43;95.46
12868;BME280;33517;49.866;8.320;2023-05-09T02:06:33;100668.50;;;14.47;95.89
12868;BME280;33517;49.866;8.320;2023-05-09T02:09:25;100674.06;;;14.52;95.43
12868;BME280;33517;49.866;8.320;2023-05-09T02:12:17;100663.09;;;14.55;95.64
12868;BME280;33517;49.866;8.320;2023-05-09T02:15:10;100671.31;;;14.60;96.18
12868;BME280;33517;49.866;8.320;2023-05-09T02:18:02;100667.09;;;14.66;96.14
12868;BME280;33517;49.866;8.320;2023-05-09T02:20:53;100665.72;;;14.70;96.04
12868;BME280;33517;49.866;8.320;2023-05-09T02:23:47;100658.84;;;14.75;96.54
12868;BME280;33517;49.866;8.320;2023-05-09T02:26:39;100657.66;;;14.78;96.11
12868;BME280;33517;49.866;8.320;2023-05-09T02:29:40;100657.47;;;14.79;96.35
12868;BME280;33517;49.866;8.320;2023-05-09T02:32:33;100660.97;;;14.80;96.14
12868;BME280;33517;49.866;8.320;2023-05-09T02:35:27;100656.28;;;14.82;96.05
12868;BME280;33517;49.866;8.320;2023-05-09T02:38:19;100657.47;;;14.79;95.95
12868;BME280;33517;49.866;8.320;2023-05-09T02:41:13;100653.94;;;14.72;96.18
12868;BME280;33517;49.866;8.320;2023-05-09T02:44:05;100650.94;;;14.61;95.63
12868;BME280;33517;49.866;8.320;2023-05-09T02:46:58;100648.78;;;14.50;96.76
12868;BME280;33517;49.866;8.320;2023-05-09T02:49:49;100653.06;;;14.36;95.89
12868;BME280;33517;49.866;8.320;2023-05-09T02:52:41;100645.56;;;14.25;96.46
12868;BME280;33517;49.866;8.320;2023-05-09T02:55:33;100647.22;;;14.12;96.91
12868;BME280;33517;49.866;8.320;2023-05-09T02:58:26;100647.03;;;13.99;96.98
12868;BME280;33517;49.866;8.320;2023-05-09T03:01:18;100646.63;;;13.87;97.03
12868;BME280;33517;49.866;8.320;2023-05-09T03:04:10;100652.00;;;13.79;96.52
12868;BME280;33517;49.866;8.320;2023-05-09T03:07:02;100642.31;;;13.71;97.21
12868;BME280;33517;49.866;8.320;2023-05-09T03:09:54;100636.91;;;13.65;97.03
12868;BME280;33517;49.866;8.320;2023-05-09T03:12:46;100628.53;;;13.61;96.62
12868;BME280;33517;49.866;8.320;2023-05-09T03:15:39;100632.25;;;13.52;97.32
12868;BME280;33517;49.866;8.320;2023-05-09T03:18:31;100625.22;;;13.45;96.10
12868;BME280;33517;49.866;8.320;2023-05-09T03:21:22;100631.38;;;13.37;96.90
12868;BME280;33517;49.866;8.320;2023-05-09T03:24:14;100635.56;;;13.32;96.46
12868;BME280;33517;49.866;8.320;2023-05-09T03:27:06;100631.06;;;13.32;96.48
12868;BME280;33517;49.866;8.320;2023-05-09T03:29:58;100626.44;;;13.34;97.46
12868;BME280;33517;49.866;8.320;2023-05-09T03:32:51;100627.44;;;13.33;98.03
12868;BME280;33517;49.866;8.320;2023-05-09T03:35:43;100634.56;;;13.33;98.37
12868;BME280;33517;49.866;8.320;2023-05-09T03:38:35;100637.66;;;13.36;98.84
12868;BME280;33517;49.866;8.320;2023-05-09T03:41:27;100633.66;;;13.40;98.22
12868;BME280;33517;49.866;8.320;2023-05-09T03:44:18;100630.50;;;13.45;98.15
12868;BME280;33517;49.866;8.320;2023-05-09T03:47:10;100622.84;;;13.50;98.15
12868;BME280;33517;49.866;8.320;2023-05-09T03:50:04;100621.50;;;13.54;98.08
12868;BME280;33517;49.866;8.320;2023-05-09T03:52:57;100611.19;;;13.59;97.21
12868;BME280;33517;49.866;8.320;2023-05-09T03:55:48;100610.28;;;13.66;97.75
12868;BME280;33517;49.866;8.320;2023-05-09T03:58:40;100610.28;;;13.66;96.78
12868;BME280;33517;49.866;8.320;2023-05-09T04:01:32;100614.78;;;13.66;97.36
12868;BME280;33517;49.866;8.320;2023-05-09T04:04:24;100618.88;;;13.68;97.41
12868;BME280;33517;49.866;8.320;2023-05-09T04:07:18;100621.81;;;13.73;97.05
12868;BME280;33517;49.866;8.320;2023-05-09T04:10:10;100619.63;;;13.77;97.87
12868;BME280;33517;49.866;8.320;2023-05-09T04:13:02;100611.41;;;13.86;97.66
12868;BME280;33517;49.866;8.320;2023-05-09T04:15:54;100608.50;;;13.96;97.27
12868;BME280;33517;49.866;8.320;2023-05-09T04:18:46;100607.06;;;14.08;98.00
12868;BME280;33517;49.866;8.320;2023-05-09T04:21:38;100606.59;;;14.19;97.41
12868;BME280;33517;49.866;8.320;2023-05-09T04:24:31;100609.44;;;14.32;97.05
12868;BME280;33517;49.866;8.320;2023-05-09T04:27:23;100605.50;;;14.43;97.63
12868;BME280;33517;49.866;8.320;2023-05-09T04:30:17;100608.31;;;14.41;97.77
12868;BME280;33517;49.866;8.320;2023-05-09T04:33:10;100609.50;;;14.53;97.92
12868;BME280;33517;49.866;8.320;2023-05-09T04:36:03;100608.50;;;14.54;98.04
12868;BME280;33517;49.866;8.320;2023-05-09T04:38:57;100612.09;;;14.68;97.88
12868;BME280;33517;49.866;8.320;2023-05-09T04:41:50;100613.72;;;14.48;99.60
12868;BME280;33517;49.866;8.320;2023-05-09T04:44:42;100605.91;;;14.61;100.00
12868;BME280;33517;49.866;8.320;2023-05-09T04:47:34;100601.41;;;14.76;99.53
12868;BME280;33517;49.866;8.320;2023-05-09T04:50:26;100600.34;;;14.92;99.25
12868;BME280;33517;49.866;8.320;2023-05-09T04:53:17;100602.91;;;14.85;99.47
12868;BME280;33517;49.866;8.320;2023-05-09T04:56:10;100595.34;;;14.82;100.00
12868;BME280;33517;49.866;8.320;2023-05-09T04:59:03;100590.91;;;15.04;99.45
12868;BME280;33517;49.866;8.320;2023-05-09T05:01:54;100587.53;;;15.16;99.05
12868;BME280;33517;49.866;8.320;2023-05-09T05:04:46;100588.28;;;15.31;97.79
12868;BME280;33517;49.866;8.320;2023-05-09T05:07:38;100583.59;;;15.33;97.72
12868;BME280;33517;49.866;8.320;2023-05-09T05:10:30;100578.28;;;15.48;96.55
12868;BME280;33517;49.866;8.320;2023-05-09T05:13:22;100578.78;;;15.64;96.18
12868;BME280;33517;49.866;8.320;2023-05-09T05:16:15;100573.56;;;15.78;96.11
12868;BME280;33517;49.866;8.320;2023-05-09T05:19:07;100570.00;;;15.92;95.67
12868;BME280;33517;49.866;8.320;2023-05-09T05:21:59;100575.16;;;16.06;94.76
12868;BME280;33517;49.866;8.320;2023-05-09T05:24:51;100572.34;;;16.14;94.57
12868;BME280;33517;49.866;8.320;2023-05-09T05:27:42;100573.22;;;16.28;94.35
12868;BME280;33517;49.866;8.320;2023-05-09T05:30:34;100573.50;;;16.39;94.02
12868;BME280;33517;49.866;8.320;2023-05-09T05:33:27;100567.56;;;16.44;94.80
12868;BME280;33517;49.866;8.320;2023-05-09T05:36:19;100564.97;;;16.50;94.82
12868;BME280;33517;49.866;8.320;2023-05-09T05:39:11;100557.88;;;16.77;94.54
12868;BME280;33517;49.866;8.320;2023-05-09T05:42:03;100555.06;;;16.98;94.13
12868;BME280;33517;49.866;8.320;2023-05-09T05:44:55;100569.41;;;17.23;93.57
12868;BME280;33517;49.866;8.320;2023-05-09T05:47:47;100565.31;;;17.40;93.31
12868;BME280;33517;49.866;8.320;2023-05-09T05:50:40;100566.16;;;17.61;92.30
12868;BME280;33517;49.866;8.320;2023-05-09T05:53:32;100566.53;;;17.71;92.02
12868;BME280;33517;49.866;8.320;2023-05-09T05:56:24;100568.97;;;17.79;91.49
12868;BME280;33517;49.866;8.320;2023-05-09T05:59:15;100564.88;;;17.89;91.38
12868;BME280;33517;49.866;8.320;2023-05-09T06:02:07;100561.56;;;17.94;91.72
12868;BME280;33517;49.866;8.320;2023-05-09T06:04:59;100556.63;;;18.04;91.20
12868;BME280;33517;49.866;8.320;2023-05-09T06:07:52;100558.19;;;18.24;90.85
12868;BME280;33517;49.866;8.320;2023-05-09T06:10:44;100555.13;;;18.27;90.07
12868;BME280;33517;49.866;8.320;2023-05-09T06:13:36;100558.19;;;18.24;90.86
12868;BME280;33517;49.866;8.320;2023-05-09T06:16:28;100559.00;;;18.31;90.01
12868;BME280;33517;49.866;8.320;2023-05-09T06:19:19;100554.25;;;18.33;90.08
12868;BME280;33517;49.866;8.320;2023-05-09T06:22:11;100551.63;;;18.27;90.53
12868;BME280;33517;49.866;8.320;2023-05-09T06:25:05;100547.97;;;18.21;90.25
12868;BME280;33517;49.866;8.320;2023-05-09T06:27:57;100537.16;;;18.03;89.74
12868;BME280;33517;49.866;8.320;2023-05-09T06:30:49;100537.59;;;17.94;90.17
12868;BME280;33517;49.866;8.320;2023-05-09T06:33:41;100538.41;;;18.01;90.48
12868;BME280;33517;49.866;8.320;2023-05-09T06:36:33;100538.63;;;17.93;89.77
12868;BME280;33517;49.866;8.320;2023-05-09T06:39:25;100533.88;;;18.01;89.89
12868;BME280;33517;49.866;8.320;2023-05-09T06:42:20;100533.06;;;18.07;89.97
12868;BME280;33517;49.866;8.320;2023-05-09T06:45:12;100527.91;;;18.12;89.30
12868;BME280;33517;49.866;8.320;2023-05-09T06:48:04;100536.50;;;18.14;89.55
12868;BME280;33517;49.866;8.320;2023-05-09T06:50:56;100524.00;;;18.21;89.11
12868;BME280;33517;49.866;8.320;2023-05-09T06:53:48;100519.59;;;18.33;88.53
12868;BME280;33517;49.866;8.320;2023-05-09T06:56:40;100508.72;;;18.41;88.74
12868;BME280;33517;49.866;8.320;2023-05-09T06:59:33;100505.53;;;18.64;87.87
12868;BME280;33517;49.866;8.320;2023-05-09T07:02:26;100507.66;;;18.56;87.03
12868;BME280;33517;49.866;8.320;2023-05-09T07:05:18;100500.88;;;18.09;87.17
12868;BME280;33517;49.866;8.320;2023-05-09T07:08:10;100499.41;;;18.19;88.08
12868;BME280;33517;49.866;8.320;2023-05-09T07:11:02;100505.34;;;18.21;88.53
12868;BME280;33517;49.866;8.320;2023-05-09T07:13:54;100503.53;;;18.09;88.41
12868;BME280;33517;49.866;8.320;2023-05-09T07:16:47;100501.75;;;17.96;88.95
12868;BME280;33517;49.866;8.320;2023-05-09T07:19:39;100497.53;;;17.76;89.97
12868;BME280;33517;49.866;8.320;2023-05-09T07:22:31;100492.88;;;17.58;91.68
12868;BME280;33517;49.866;8.320;2023-05-09T07:25:23;100485.06;;;17.70;92.00
12868;BME280;33517;49.866;8.320;2023-05-09T07:28:15;100489.94;;;17.73;92.03
12868;BME280;33517;49.866;8.320;2023-05-09T07:31:06;100476.84;;;17.71;92.38
12868;BME280;33517;49.866;8.320;2023-05-09T07:34:00;100477.94;;;17.51;92.55
12868;BME280;33517;49.866;8.320;2023-05-09T07:36:52;100481.19;;;17.59;94.03
12868;BME280;33517;49.866;8.320;2023-05-09T07:39:44;100470.69;;;17.77;93.57
12868;BME280;33517;49.866;8.320;2023-05-09T07:42:37;100468.69;;;18.17;91.84
12868;BME280;33517;49.866;8.320;2023-05-09T07:45:29;100466.63;;;18.12;90.64
12868;BME280;33517;49.866;8.320;2023-05-09T07:48:21;100459.84;;;18.16;91.16
12868;BME280;33517;49.866;8.320;2023-05-09T07:51:14;100456.13;;;18.24;90.03
12868;BME280;33517;49.866;8.320;2023-05-09T07:54:06;100457.59;;;17.76;91.25
12868;BME280;33517;49.866;8.320;2023-05-09T07:56:59;100455.63;;;17.52;94.26
12868;BME280;33517;49.866;8.320;2023-05-09T07:59:51;100458.22;;;17.71;93.71
12868;BME280;33517;49.866;8.320;2023-05-09T08:02:43;100454.28;;;17.87;92.50
12868;BME280;33517;49.866;8.320;2023-05-09T08:05:35;100445.88;;;18.27;92.57
12868;BME280;33517;49.866;8.320;2023-05-09T08:08:28;100444.06;;;18.59;90.02
12868;BME280;33517;49.866;8.320;2023-05-09T08:11:20;100434.31;;;18.40;89.61
12868;BME280;33517;49.866;8.320;2023-05-09T08:14:12;100425.38;;;18.28;89.58
12868;BME280;33517;49.866;8.320;2023-05-09T08:17:04;100431.38;;;18.55;89.28
12868;BME280;33517;49.866;8.320;2023-05-09T08:19:56;100421.94;;;19.26;87.89
12868;BME280;33517;49.866;8.320;2023-05-09T08:22:47;100423.44;;;19.76;84.64
12868;BME280;33517;49.866;8.320;2023-05-09T08:25:41;100420.63;;;19.35;83.87
12868;BME280;33517;49.866;8.320;2023-05-09T08:28:33;100416.19;;;19.47;85.28
12868;BME280;33517;49.866;8.320;2023-05-09T08:31:25;100407.78;;;19.80;84.56
12868;BME280;33517;49.866;8.320;2023-05-09T08:34:17;100406.41;;;19.59;83.82
12868;BME280;33517;49.866;8.320;2023-05-09T08:37:09;100410.03;;;19.47;84.52
12868;BME280;33517;49.866;8.320;2023-05-09T08:40:01;100405.44;;;19.54;84.00
12868;BME280;33517;49.866;8.320;2023-05-09T08:42:55;100399.53;;;19.52;84.19
12868;BME280;33517;49.866;8.320;2023-05-09T08:45:50;100406.72;;;19.99;83.34
12868;BME280;33517;49.866;8.320;2023-05-09T08:48:44;100402.59;;;20.14;81.90
12868;BME280;33517;49.866;8.320;2023-05-09T08:51:36;100393.94;;;20.01;81.20
12868;BME280;33517;49.866;8.320;2023-05-09T08:54:29;100401.28;;;19.40;83.84
12868;BME280;33517;49.866;8.320;2023-05-09T08:57:21;100392.63;;;19.44;84.37
12868;BME280;33517;49.866;8.320;2023-05-09T09:00:15;100393.22;;;19.03;85.69
12868;BME280;33517;49.866;8.320;2023-05-09T09:03:09;100379.25;;;18.83;87.46
12868;BME280;33517;49.866;8.320;2023-05-09T09:06:02;100386.09;;;18.97;86.59
12868;BME280;33517;49.866;8.320;2023-05-09T09:08:54;100387.97;;;19.15;85.54
12868;BME280;33517;49.866;8.320;2023-05-09T09:11:47;100386.16;;;19.52;84.68
12868;BME280;33517;49.866;8.320;2023-05-09T09:14:41;100384.69;;;19.85;83.62
12868;BME280;33517;49.866;8.320;2023-05-09T09:17:39;100377.00;;;19.77;82.41
12868;BME280;33517;49.866;8.320;2023-05-09T09:20:33;100376.16;;;19.65;83.30
12868;BME280;33517;49.866;8.320;2023-05-09T09:23:27;100362.78;;;19.29;84.05
12868;BME280;33517;49.866;8.320;2023-05-09T09:26:20;100370.31;;;19.39;84.21
12868;BME280;33517;49.866;8.320;2023-05-09T09:29:15;100361.91;;;19.53;84.09
12868;BME280;33517;49.866;8.320;2023-05-09T09:32:07;100356.03;;;19.92;83.38
12868;BME280;33517;49.866;8.320;2023-05-09T09:35:05;100357.38;;;20.54;81.35
12868;BME280;33517;49.866;8.320;2023-05-09T09:37:57;100347.03;;;21.27;79.09
12868;BME280;33517;49.866;8.320;2023-05-09T09:40:53;100347.91;;;21.84;76.07
12868;BME280;33517;49.866;8.320;2023-05-09T09:43:45;100338.16;;;22.39;71.29
12868;BME280;33517;49.866;8.320;2023-05-09T09:46:42;100336.31;;;22.73;71.92
12868;BME280;33517;49.866;8.320;2023-05-09T09:49:35;100332.72;;;22.84;70.92
12868;BME280;33517;49.866;8.320;2023-05-09T09:52:28;100328.88;;;23.18;69.21
12868;BME280;33517;49.866;8.320;2023-05-09T09:55:22;100320.34;;;23.43;68.01
12868;BME280;33517;49.866;8.320;2023-05-09T09:58:17;100320.44;;;23.48;68.29
12868;BME280;33517;49.866;8.320;2023-05-09T10:01:11;100313.09;;;23.22;68.53
12868;BME280;33517;49.866;8.320;2023-05-09T10:04:05;100313.13;;;22.83;68.30
12868;BME280;33517;49.866;8.320;2023-05-09T10:07:00;100315.31;;;22.20;71.16
12868;BME280;33517;49.866;8.320;2023-05-09T10:09:54;100304.25;;;21.83;72.13
12868;BME280;33517;49.866;8.320;2023-05-09T10:12:46;100293.78;;;21.70;73.06
12868;BME280;33517;49.866;8.320;2023-05-09T10:15:39;100289.69;;;23.17;68.70
12868;BME280;33517;49.866;8.320;2023-05-09T10:18:32;100293.47;;;24.18;64.55
12868;BME280;33517;49.866;8.320;2023-05-09T10:21:25;100277.91;;;25.03;64.88
12868;BME280;33517;49.866;8.320;2023-05-09T10:24:21;100272.34;;;24.36;64.51
12868;BME280;33517;49.866;8.320;2023-05-09T10:27:18;100274.19;;;23.03;66.29
12868;BME280;33517;49.866;8.320;2023-05-09T10:30:15;100275.28;;;22.14;69.36
12868;BME280;33517;49.866;8.320;2023-05-09T10:33:09;100265.44;;;21.86;70.46
12868;BME280;33517;49.866;8.320;2023-05-09T10:36:03;100256.44;;;21.64;71.34
12868;BME280;33517;49.866;8.320;2023-05-09T10:38:57;100257.16;;;22.21;69.89
12868;BME280;33517;49.866;8.320;2023-05-09T10:41:50;100254.81;;;21.91;71.63
12868;BME280;33517;49.866;8.320;2023-05-09T10:44:43;100255.53;;;21.58;72.06
12868;BME280;33517;49.866;8.320;2023-05-09T10:47:38;100244.16;;;21.23;74.50
12868;BME280;33517;49.866;8.320;2023-05-09T10:50:30;100238.34;;;21.26;74.52
12868;BME280;33517;49.866;8.320;2023-05-09T10:53:22;100234.38;;;21.57;73.42
12868;BME280;33517;49.866;8.320;2023-05-09T10:56:22;100232.66;;;21.51;74.60
12868;BME280;33517;49.866;8.320;2023-05-09T10:59:45;100220.38;;;21.83;73.35
12868;BME280;33517;49.866;8.320;2023-05-09T11:02:37;100211.13;;;22.07;72.92
12868;BME280;33517;49.866;8.320;2023-05-09T11:05:37;100205.09;;;22.17;72.10
12868;BME280;33517;49.866;8.320;2023-05-09T11:08:30;100207.72;;;22.50;72.01
12868;BME280;33517;49.866;8.320;2023-05-09T11:11:22;100201.97;;;22.58;71.08
12868;BME280;33517;49.866;8.320;2023-05-09T11:14:27;100199.81;;;23.46;69.79
12868;BME280;33517;49.866;8.320;2023-05-09T11:17:30;100192.00;;;24.08;66.72
12868;BME280;33517;49.866;8.320;2023-05-09T11:20:26;100190.66;;;25.04;63.51
12868;BME280;33517;49.866;8.320;2023-05-09T11:23:20;100196.19;;;23.62;63.59
12868;BME280;33517;49.866;8.320;2023-05-09T11:26:13;100182.75;;;23.94;64.71
12868;BME280;33517;49.866;8.320;2023-05-09T11:29:05;100176.31;;;24.00;63.59
12868;BME280;33517;49.866;8.320;2023-05-09T11:32:03;100172.69;;;24.11;62.40
12868;BME280;33517;49.866;8.320;2023-05-09T11:35:06;100164.84;;;23.73;64.29
12868;BME280;33517;49.866;8.320;2023-05-09T11:38:00;100156.72;;;24.46;63.50
12868;BME280;33517;49.866;8.320;2023-05-09T11:40:52;100157.31;;;26.31;59.66
12868;BME280;33517;49.866;8.320;2023-05-09T11:43:45;100154.22;;;27.94;56.82
12868;BME280;33517;49.866;8.320;2023-05-09T11:46:37;100155.47;;;26.90;53.93
12868;BME280;33517;49.866;8.320;2023-05-09T11:49:29;100155.38;;;27.49;54.10
12868;BME280;33517;49.866;8.320;2023-05-09T11:52:22;100144.19;;;27.27;53.71
12868;BME280;33517;49.866;8.320;2023-05-09T11:55:16;100142.25;;;27.27;52.33
12868;BME280;33517;49.866;8.320;2023-05-09T11:58:09;100136.94;;;27.17;51.99
12868;BME280;33517;49.866;8.320;2023-05-09T12:01:01;100128.59;;;26.55;54.28
12868;BME280;33517;49.866;8.320;2023-05-09T12:03:53;100115.00;;;26.06;54.26
12868;BME280;33517;49.866;8.320;2023-05-09T12:06:46;100103.66;;;26.04;54.54
12868;BME280;33517;49.866;8.320;2023-05-09T12:09:39;100112.03;;;26.03;52.46
12868;BME280;33517;49.866;8.320;2023-05-09T12:12:33;100108.44;;;24.72;56.16
12868;BME280;33517;49.866;8.320;2023-05-09T12:15:25;100095.72;;;24.57;57.66
12868;BME280;33517;49.866;8.320;2023-05-09T12:18:17;100094.34;;;24.49;57.57
12868;BME280;33517;49.866;8.320;2023-05-09T12:21:09;100095.34;;;24.33;58.95
12868;BME280;33517;49.866;8.320;2023-05-09T12:24:01;100090.84;;;24.49;59.48
12868;BME280;33517;49.866;8.320;2023-05-09T12:26:56;100078.59;;;24.83;58.57
12868;BME280;33517;49.866;8.320;2023-05-09T12:29:48;100076.81;;;23.90;60.93
12868;BME280;33517;49.866;8.320;2023-05-09T12:32:40;100072.72;;;24.24;60.64
12868;BME280;33517;49.866;8.320;2023-05-09T12:35:33;100072.97;;;24.23;59.09
12868;BME280;33517;49.866;8.320;2023-05-09T12:38:25;100068.41;;;23.82;59.66
12868;BME280;33517;49.866;8.320;2023-05-09T12:41:17;100056.28;;;23.74;60.47
12868;BME280;33517;49.866;8.320;2023-05-09T12:44:19;100049.41;;;23.98;59.47
12868;BME280;33517;49.866;8.320;2023-05-09T12:47:11;100039.19;;;23.90;60.68
12868;BME280;33517;49.866;8.320;2023-05-09T12:50:05;100038.97;;;23.55;60.15
12868;BME280;33517;49.866;8.320;2023-05-09T12:53:00;100040.69;;;23.71;59.61
12868;BME280;33517;49.866;8.320;2023-05-09T12:56:00;100033.28;;;23.51;61.13
12868;BME280;33517;49.866;8.320;2023-05-09T12:58:54;100025.56;;;23.28;60.97
12868;BME280;33517;49.866;8.320;2023-05-09T13:01:52;100030.00;;;22.81;62.62
12868;BME280;33517;49.866;8.320;2023-05-09T13:04:45;100028.97;;;22.60;62.96
12868;BME280;33517;49.866;8.320;2023-05-09T13:07:40;100028.41;;;22.58;62.79
12868;BME280;33517;49.866;8.320;2023-05-09T13:10:32;100014.59;;;22.98;62.86
12868;BME280;33517;49.866;8.320;2023-05-09T13:13:25;100005.03;;;23.44;63.56
12868;BME280;33517;49.866;8.320;2023-05-09T13:16:17;100004.16;;;23.33;64.97
12868;BME280;33517;49.866;8.320;2023-05-09T13:19:11;99995.88;;;23.40;64.81
12868;BME280;33517;49.866;8.320;2023-05-09T13:22:03;99994.78;;;23.41;65.10
12868;BME280;33517;49.866;8.320;2023-05-09T13:24:55;99989.47;;;23.46;64.92
12868;BME280;33517;49.866;8.320;2023-05-09T13:27:47;99985.69;;;23.42;65.24
12868;BME280;33517;49.866;8.320;2023-05-09T13:30:38;99984.94;;;23.46;65.92
12868;BME280;33517;49.866;8.320;2023-05-09T13:33:30;99978.00;;;23.60;65.05
12868;BME280;33517;49.866;8.320;2023-05-09T13:36:25;99978.28;;;23.64;65.28
12868;BME280;33517;49.866;8.320;2023-05-09T13:39:16;99967.91;;;23.31;63.44
12868;BME280;33517;49.866;8.320;2023-05-09T13:42:08;99967.44;;;23.12;63.29
12868;BME280;33517;49.866;8.320;2023-05-09T13:45:00;99961.97;;;22.97;63.88
12868;BME280;33517;49.866;8.320;2023-05-09T13:47:53;99956.16;;;23.10;63.62
12868;BME280;33517;49.866;8.320;2023-05-09T13:50:45;99957.50;;;23.08;64.26
12868;BME280;33517;49.866;8.320;2023-05-09T13:53:38;99956.16;;;23.10;65.00
12868;BME280;33517;49.866;8.320;2023-05-09T13:56:30;99945.00;;;23.23;64.68
12868;BME280;33517;49.866;8.320;2023-05-09T13:59:22;99948.22;;;23.25;64.94
12868;BME280;33517;49.866;8.320;2023-05-09T14:02:14;99938.41;;;23.04;65.95
12868;BME280;33517;49.866;8.320;2023-05-09T14:05:06;99936.78;;;23.03;66.37
12868;BME280;33517;49.866;8.320;2023-05-09T14:07:58;99924.81;;;23.16;66.14
12868;BME280;33517;49.866;8.320;2023-05-09T14:10:52;99933.84;;;23.05;66.28
12868;BME280;33517;49.866;8.320;2023-05-09T14:13:44;99917.16;;;22.98;66.60
12868;BME280;33517;49.866;8.320;2023-05-09T14:16:36;99910.69;;;22.94;66.70
12868;BME280;33517;49.866;8.320;2023-05-09T14:19:29;99908.91;;;22.72;67.38
12868;BME280;33517;49.866;8.320;2023-05-09T14:22:20;99907.47;;;22.33;69.26
12868;BME280;33517;49.866;8.320;2023-05-09T14:25:12;99909.81;;;22.30;69.71
12868;BME280;33517;49.866;8.320;2023-05-09T14:28:05;99901.03;;;22.34;69.93
12868;BME280;33517;49.866;8.320;2023-05-09T14:30:58;99896.53;;;22.13;70.38
12868;BME280;33517;49.866;8.320;2023-05-09T14:33:50;99896.13;;;22.26;70.10
12868;BME280;33517;49.866;8.320;2023-05-09T14:36:42;99890.66;;;22.43;69.73
12868;BME280;33517;49.866;8.320;2023-05-09T14:39:34;99888.19;;;22.36;69.62
12868;BME280;33517;49.866;8.320;2023-05-09T14:42:26;99878.78;;;22.34;70.05
12868;BME280;33517;49.866;8.320;2023-05-09T14:45:20;99871.53;;;22.34;70.36
12868;BME280;33517;49.866;8.320;2023-05-09T14:48:11;99874.22;;;22.34;70.33
12868;BME280;33517;49.866;8.320;2023-05-09T14:51:04;99863.69;;;22.28;70.67
12868;BME280;33517;49.866;8.320;2023-05-09T14:53:56;99866.16;;;22.29;70.82
12868;BME280;33517;49.866;8.320;2023-05-09T14:56:48;99851.47;;;22.37;70.73
12868;BME280;33517;49.866;8.320;2023-05-09T14:59:40;99854.88;;;22.27;71.47
12868;BME280;33517;49.866;8.320;2023-05-09T15:02:33;99849.97;;;22.19;71.92
12868;BME280;33517;49.866;8.320;2023-05-09T15:05:25;99850.38;;;22.06;72.13